Time;durP1;ratioP1;P1;durP2;ratioP2;P2;SDS_P1;SDS_P2;PMS_P1;PMS_P2;Temp;Humidity;BMP_temperature;BMP_pressure;BME280_temperature;BME280_humidity;BME280_pressure;Samples;Min_cycle;Max_cycle;Signal;HPM_P1;HPM_P2
2022/07/04 00:00:39;;;;;;;;;;;;;;;;;;2074570;28;19917;-82
2022/07/04 00:01:40;;;;;;;;;;;;;;;;;;2074586;28;19924;-82
2022/07/04 00:02:40;;;;;;;;;;;;;;;;;;2074658;28;20370;-82
2022/07/04 00:03:40;;;;;;;;;;;;;;;;;;2073993;28;19914;-83
2022/07/04 00:04:43;;;;;;;;;;;;;;;;;;2073979;28;19933;-82
2022/07/04 00:05:43;;;;;;;;;;;;;;;;;;2074581;28;20398;-83
2022/07/04 00:06:44;;;;;;;;;;;;;;;;;;2073744;28;19965;-83
2022/07/04 00:07:45;;;;;;;;;;;;;;;;;;2073997;28;19956;-82
2022/07/04 00:08:45;;;;;;;;;;;;;;;;;;2073959;28;20376;-82
2022/07/04 00:09:46;;;;;;;;;;;;;;;;;;2074136;28;19921;-82
2022/07/04 00:10:46;;;;;;;;;;;;;;;;;;2074058;28;19937;-82
2022/07/04 00:11:46;;;;;;;;;;;;;;;;;;2073862;28;19925;-83
2022/07/04 00:12:47;;;;;;;;;;;;;;;;;;2074452;28;20346;-82
2022/07/04 00:13:47;;;;;;;;;;;;;;;;;;2074397;28;19928;-82
2022/07/04 00:14:47;;;;;;;;;;;;;;;;;;2074622;28;20270;-81
2022/07/04 00:15:48;;;;;;;;;;;;;;;;;;2074438;28;19918;-82
2022/07/04 00:16:48;;;;;;;;;;;;;;;;;;2074572;28;19918;-82
2022/07/04 00:17:48;;;;;;;;;;;;;;;;;;2073955;28;20341;-83
2022/07/04 00:18:49;;;;;;;;;;;;;;;;;;2074093;28;19921;-82
2022/07/04 00:19:49;;;;;;;;;;;;;;;;;;2074381;28;19914;-83
2022/07/04 00:20:49;;;;;;;;;;;;;;;;;;2074761;28;20342;-83
2022/07/04 00:21:49;;;;;;;;;;;;;;;;;;2074602;28;19924;-83
2022/07/04 00:22:50;;;;;;;;;;;;;;;;;;2074556;28;19913;-82
2022/07/04 00:23:50;;;;;;;;;;;;;;;;;;2074141;28;20362;-83
2022/07/04 00:24:50;;;;;;;;;;;;;;;;;;2074062;28;19990;-83
2022/07/04 00:25:51;;;;;;;;;;;;;;;;;;2074532;28;19957;-83
2022/07/04 00:26:53;;;;;;;;;;;;;;;;;;2074281;28;19917;-83
2022/07/04 00:27:53;;;;;;;;;;;;;;;;;;2074317;28;19923;-83
2022/07/04 00:28:54;;;;;;;;;;;;;;;;;;2074229;28;19917;-83
2022/07/04 00:29:54;;;;;;;;;;;;;;;;;;2073961;28;20347;-83
2022/07/04 00:30:57;;;;;;;;;;;;;;;;;;2074193;28;19914;-83
2022/07/04 00:31:57;;;;;;;;;;;;;;;;;;2073965;28;19917;-83
2022/07/04 00:32:57;;;;;;;;;;;;;;;;;;2073937;28;20235;-83
2022/07/04 00:33:57;;;;;;;;;;;;;;;;;;2074357;28;19924;-83
2022/07/04 00:34:58;;;;;;;;;;;;;;;;;;2074475;28;19917;-83
2022/07/04 00:36:12;;;;;;;;;;;;;;;;;;2074598;28;20386;-83
2022/07/04 00:37:13;;;;;;;;;;;;;;;;;;2074524;28;20346;-82
2022/07/04 00:38:13;;;;;;;;;;;;;;;;;;2074264;28;19921;-83
2022/07/04 00:39:16;;;;;;;;;;;;;;;;;;2074533;28;19925;-83
2022/07/04 00:40:16;;;;;;;;;;;;;;;;;;2074548;28;19920;-82
2022/07/04 00:41:16;;;;;;;;;;;;;;;;;;2073868;28;19914;-83
2022/07/04 00:42:16;;;;;;;;;;;;;;;;;;2073988;28;19913;-83
2022/07/04 00:43:23;;;;;;;;;;;;;;;;;;2073843;28;19913;-83
2022/07/04 00:44:24;;;;;;;;;;;;;;;;;;2074033;28;19976;-82
2022/07/04 00:45:24;;;;;;;;;;;;;;;;;;2074653;28;19913;-82
2022/07/04 00:46:24;;;;;;;;;;;;;;;;;;2074253;28;19952;-83
2022/07/04 00:47:24;;;;;;;;;;;;;;;;;;2073894;28;20354;-83
2022/07/04 00:48:25;;;;;;;;;;;;;;;;;;2065737;28;19976;-84
2022/07/04 00:49:25;;;;;;;;;;;;;;;;;;2073872;28;20012;-84
2022/07/04 00:50:26;;;;;;;;;;;;;;;;;;2073645;28;19975;-84
2022/07/04 00:51:26;;;;;;;;;;;;;;;;;;2073776;28;19913;-83
2022/07/04 00:52:27;;;;;;;;;;;;;;;;;;2073724;28;19999;-83
2022/07/04 00:53:28;;;;;;;;;;;;;;;;;;2073807;28;20420;-83
2022/07/04 00:54:29;;;;;;;;;;;;;;;;;;2074169;28;19956;-83
2022/07/04 00:55:29;;;;;;;;;;;;;;;;;;2074271;28;19985;-83
2022/07/04 00:56:30;;;;;;;;;;;;;;;;;;2074128;28;19921;-83
2022/07/04 00:57:32;;;;;;;;;;;;;;;;;;2074069;28;19921;-84
2022/07/04 00:59:03;;;;;;;;;;;;;;;;;;2074197;28;19921;-84
2022/07/04 01:00:03;;;;;;;;;;;;;;;;;;2074319;28;19940;-83
2022/07/04 01:01:04;;;;;;;;;;;;;;;;;;2074298;28;20390;-83
2022/07/04 01:02:07;;;;;;;;;;;;;;;;;;2073741;28;20026;-82
2022/07/04 01:03:07;;;;;;;;;;;;;;;;;;2073861;28;19913;-82
2022/07/04 01:04:07;;;;;;;;;;;;;;;;;;2073803;28;19918;-82
2022/07/04 01:05:10;;;;;;;;;;;;;;;;;;2073605;28;19928;-84
2022/07/04 01:06:16;;;;;;;;;;;;;;;;;;2073550;28;19968;-82
2022/07/04 01:07:16;;;;;;;;;;;;;;;;;;2073544;28;19914;-82
2022/07/04 01:08:21;;;;;;;;;;;;;;;;;;2073513;28;19925;-84
2022/07/04 01:09:22;;;;;;;;;;;;;;;;;;2073541;28;20298;-82
2022/07/04 01:10:27;;;;;;;;;;;;;;;;;;2073558;28;19957;-84
2022/07/04 01:11:30;;;;;;;;;;;;;;;;;;2073527;28;19976;-82
2022/07/04 01:12:39;;;;;;;;;;;;;;;;;;2074304;28;19913;-84
2022/07/04 01:13:45;;;;;;;;;;;;;;;;;;2074038;28;19921;-84
2022/07/04 01:14:45;;;;;;;;;;;;;;;;;;2076693;28;19909;-82
2022/07/04 01:15:45;;;;;;;;;;;;;;;;;;2073862;28;19914;-84
2022/07/04 01:16:51;;;;;;;;;;;;;;;;;;2073283;28;20126;-82
2022/07/04 01:17:53;;;;;;;;;;;;;;;;;;2073495;28;20063;-82
2022/07/04 01:19:13;;;;;;;;;;;;;;;;;;2073747;28;19932;-84
2022/07/04 01:20:23;;;;;;;;;;;;;;;;;;2074992;28;19987;-84
2022/07/04 01:21:27;;;;;;;;;;;;;;;;;;2073382;28;20350;-82
2022/07/04 01:22:30;;;;;;;;;;;;;;;;;;2073394;28;19920;-82
2022/07/04 01:23:38;;;;;;;;;;;;;;;;;;2073304;28;19913;-83
2022/07/04 01:24:41;;;;;;;;;;;;;;;;;;2074034;28;19999;-82
2022/07/04 01:26:09;;;;;;;;;;;;;;;;;;;;;
2022/07/04 01:27:09;;;;;;;;;;;;;;;;;;2073968;28;19919;-83
2022/07/04 01:28:15;;;;;;;;;;;;;;;;;;2074084;28;20274;-83
2022/07/04 01:29:17;;;;;;;;;;;;;;;;;;2073384;28;19976;-83
2022/07/04 01:30:17;;;;;;;;;;;;;;;;;;2073360;28;19913;-83
2022/07/04 01:31:18;;;;;;;;;;;;;;;;;;2073943;28;20389;-83
2022/07/04 01:32:18;;;;;;;;;;;;;;;;;;2073359;28;19997;-83
2022/07/04 01:33:21;;;;;;;;;;;;;;;;;;2073633;28;20417;-83
2022/07/04 01:34:21;;;;;;;;;;;;;;;;;;2073630;28;19913;-84
2022/07/04 01:35:22;;;;;;;;;;;;;;;;;;2073639;28;19917;-83
2022/07/04 01:36:22;;;;;;;;;;;;;;;;;;2073255;28;20083;-84
2022/07/04 01:37:23;;;;;;;;;;;;;;;;;;2065512;28;19921;-84
2022/07/04 01:38:23;;;;;;;;;;;;;;;;;;2073399;28;19927;-84
2022/07/04 01:39:23;;;;;;;;;;;;;;;;;;2074041;28;19922;-84
2022/07/04 01:40:23;;;;;;;;;;;;;;;;;;2074195;28;20278;-83
2022/07/04 01:41:24;;;;;;;;;;;;;;;;;;2073966;28;19914;-83
2022/07/04 01:42:24;;;;;;;;;;;;;;;;;;2073566;28;19976;-84
2022/07/04 01:43:29;;;;;;;;;;;;;;;;;;2073409;28;19913;-82
2022/07/04 01:44:29;;;;;;;;;;;;;;;;;;2073296;28;19979;-82
2022/07/04 01:45:36;;;;;;;;;;;;;;;;;;2073371;28;20365;-83
2022/07/04 01:46:37;;;;;;;;;;;;;;;;;;2074585;28;19924;-82
2022/07/04 01:47:37;;;;;;;;;;;;;;;;;;2073738;28;20144;-83
2022/07/04 01:48:40;;;;;;;;;;;;;;;;;;2073736;28;20362;-83
2022/07/04 01:49:40;;;;;;;;;;;;;;;;;;2074331;28;20405;-82
2022/07/04 01:50:41;;;;;;;;;;;;;;;;;;2067031;28;19949;-83
2022/07/04 01:51:56;;;;;;;;;;;;;;;;;;2067884;28;20190;-82
2022/07/04 01:52:56;;;;;;;;;;;;;;;;;;2077691;28;19931;-82
2022/07/04 01:53:57;;;;;;;;;;;;;;;;;;2077803;28;20189;-82
2022/07/04 01:55:00;;;;;;;;;;;;;;;;;;2076855;28;19928;-82
2022/07/04 01:56:01;;;;;;;;;;;;;;;;;;2075408;28;19923;-81
2022/07/04 01:57:01;;;;;;;;;;;;;;;;;;2075742;28;19921;-81
2022/07/04 01:58:01;;;;;;;;;;;;;;;;;;2074462;28;20363;-83
2022/07/04 01:59:03;;;;;;;;;;;;;;;;;;2073883;28;19964;-82
2022/07/04 02:01:31;;;;;;;;;;;;;;;;;;2074046;28;19941;-82
2022/07/04 02:02:34;;;;;;;;;;;;;;;;;;2073417;28;20337;-82
2022/07/04 02:03:34;;;;;;;;;;;;;;;;;;2065373;28;19924;-82
2022/07/04 02:04:34;;;;;;;;;;;;;;;;;;2073429;28;19921;-82
2022/07/04 02:05:37;;;;;;;;;;;;;;;;;;2073956;28;20446;-82
2022/07/04 02:06:37;;;;;;;;;;;;;;;;;;2073152;28;19920;-83
2022/07/04 02:07:37;;;;;;;;;;;;;;;;;;2073491;28;19929;-82
2022/07/04 02:09:19;;;;;;;;;;;;;;;;;;2073446;28;19957;-84
2022/07/04 02:10:01;;;;;;;;;;;;;;;;;;2070755;28;19979;-82
2022/07/04 02:11:01;;;;;;;;;;;;;;;;;;2073903;28;19913;-82
2022/07/04 02:13:22;;;;;;;;;;;;;;;;;;2074190;28;19914;-82
2022/07/04 02:14:23;;;;;;;;;;;;;;;;;;2073323;28;19924;-82
2022/07/04 02:15:23;;;;;;;;;;;;;;;;;;2073407;28;19913;-82
2022/07/04 02:16:23;;;;;;;;;;;;;;;;;;2073286;28;19924;-82
2022/07/04 02:17:24;;;;;;;;;;;;;;;;;;2073498;28;19925;-82
2022/07/04 02:18:24;;;;;;;;;;;;;;;;;;2073695;28;19921;-82
2022/07/04 02:19:24;;;;;;;;;;;;;;;;;;2073232;28;19935;-82
2022/07/04 02:20:25;;;;;;;;;;;;;;;;;;2073439;28;19960;-82
2022/07/04 02:21:26;;;;;;;;;;;;;;;;;;2073553;28;19913;-82
2022/07/04 02:22:26;;;;;;;;;;;;;;;;;;2073692;28;19913;-83
2022/07/04 02:23:28;;;;;;;;;;;;;;;;;;2073351;28;19944;-82
2022/07/04 02:24:28;;;;;;;;;;;;;;;;;;2065367;28;19936;-82
2022/07/04 02:25:29;;;;;;;;;;;;;;;;;;2073195;28;19913;-82
2022/07/04 02:26:29;;;;;;;;;;;;;;;;;;2073249;28;20351;-82
2022/07/04 02:27:30;;;;;;;;;;;;;;;;;;2073710;28;19974;-83
2022/07/04 02:28:32;;;;;;;;;;;;;;;;;;2073767;28;19913;-82
2022/07/04 02:29:33;;;;;;;;;;;;;;;;;;2073273;28;20444;-83
2022/07/04 02:30:33;;;;;;;;;;;;;;;;;;2065213;28;19913;-82
2022/07/04 02:31:33;;;;;;;;;;;;;;;;;;2073140;28;19991;-83
2022/07/04 02:32:34;;;;;;;;;;;;;;;;;;2073442;28;19979;-83
2022/07/04 02:33:34;;;;;;;;;;;;;;;;;;2073208;28;20418;-83
2022/07/04 02:34:35;;;;;;;;;;;;;;;;;;2073414;28;20023;-83
2022/07/04 02:35:42;;;;;;;;;;;;;;;;;;2073076;28;19914;-83
2022/07/04 02:36:43;;;;;;;;;;;;;;;;;;2074162;28;19924;-83
2022/07/04 02:37:43;;;;;;;;;;;;;;;;;;2081368;28;19960;-83
2022/07/04 02:38:45;;;;;;;;;;;;;;;;;;2073383;28;19940;-84
2022/07/04 02:39:56;;;;;;;;;;;;;;;;;;;;;
2022/07/04 02:40:56;;;;;;;;;;;;;;;;;;2073720;28;19913;-83
2022/07/04 02:42:09;;;;;;;;;;;;;;;;;;;;;
2022/07/04 02:43:17;;;;;;;;;;;;;;;;;;2073532;28;20351;-83
2022/07/04 02:44:19;;;;;;;;;;;;;;;;;;2076379;28;20408;-84
2022/07/04 02:45:22;;;;;;;;;;;;;;;;;;2073773;28;20347;-84
2022/07/04 02:46:33;;;;;;;;;;;;;;;;;;;;;
2022/07/04 02:47:36;;;;;;;;;;;;;;;;;;2073832;28;19920;-83
2022/07/04 02:48:46;;;;;;;;;;;;;;;;;;2073906;28;19961;-84
2022/07/04 02:50:07;;;;;;;;;;;;;;;;;;2073390;28;20370;-83
2022/07/04 02:51:25;;;;;;;;;;;;;;;;;;2073239;28;19913;-83
2022/07/04 02:52:28;;;;;;;;;;;;;;;;;;2073467;28;19929;-83
2022/07/04 02:53:33;;;;;;;;;;;;;;;;;;2072890;28;19928;-83
2022/07/04 02:54:53;;;;;;;;;;;;;;;;;;2073046;28;19913;-83
2022/07/04 02:55:54;;;;;;;;;;;;;;;;;;2066545;28;19956;-83
2022/07/04 02:56:54;;;;;;;;;;;;;;;;;;2074222;28;19948;-83
2022/07/04 02:57:55;;;;;;;;;;;;;;;;;;2074448;28;19924;-82
2022/07/04 02:58:55;;;;;;;;;;;;;;;;;;2074636;28;19920;-84
2022/07/04 03:00:05;;;;;;;;;;;;;;;;;;;;;
2022/07/04 03:01:08;;;;;;;;;;;;;;;;;;2074794;28;20386;-84
2022/07/04 03:02:11;;;;;;;;;;;;;;;;;;2075162;28;19929;-83
2022/07/04 03:03:21;;;;;;;;;;;;;;;;;;;;;
2022/07/04 03:04:24;;;;;;;;;;;;;;;;;;2074804;28;19924;-84
2022/07/04 03:05:34;;;;;;;;;;;;;;;;;;2074990;28;20094;-83
2022/07/04 03:06:39;;;;;;;;;;;;;;;;;;2076391;28;19921;-83
2022/07/04 03:07:40;;;;;;;;;;;;;;;;;;2074644;28;19921;-83
2022/07/04 03:10:20;;;;;;;;;;;;;;;;;;2075274;28;19928;-83
2022/07/04 03:11:24;;;;;;;;;;;;;;;;;;2074678;28;19913;-83
2022/07/04 03:12:24;;;;;;;;;;;;;;;;;;2074535;28;19917;-83
2022/07/04 03:13:25;;;;;;;;;;;;;;;;;;2074902;28;20024;-83
2022/07/04 03:14:27;;;;;;;;;;;;;;;;;;2074556;28;19921;-85
2022/07/04 03:15:38;;;;;;;;;;;;;;;;;;;;;
2022/07/04 03:16:40;;;;;;;;;;;;;;;;;;2074811;28;20287;-84
2022/07/04 03:17:43;;;;;;;;;;;;;;;;;;2074243;28;20365;-84
2022/07/04 03:18:46;;;;;;;;;;;;;;;;;;2074253;28;20047;-83
2022/07/04 03:19:49;;;;;;;;;;;;;;;;;;2075315;28;19913;-83
2022/07/04 03:20:49;;;;;;;;;;;;;;;;;;2076082;28;19925;-84
2022/07/04 03:21:49;;;;;;;;;;;;;;;;;;2075346;28;19917;-83
2022/07/04 03:22:51;;;;;;;;;;;;;;;;;;2068624;28;19920;-84
2022/07/04 03:23:57;;;;;;;;;;;;;;;;;;2075774;28;19920;-84
2022/07/04 03:24:57;;;;;;;;;;;;;;;;;;2076685;28;19953;-84
2022/07/04 03:26:00;;;;;;;;;;;;;;;;;;2075864;28;19929;-83
2022/07/04 03:27:03;;;;;;;;;;;;;;;;;;2075117;28;19921;-84
2022/07/04 03:28:04;;;;;;;;;;;;;;;;;;2074471;28;19928;-84
2022/07/04 03:29:04;;;;;;;;;;;;;;;;;;2074399;28;19979;-86
2022/07/04 03:30:05;;;;;;;;;;;;;;;;;;2074380;28;20366;-83
2022/07/04 03:31:05;;;;;;;;;;;;;;;;;;2074487;28;19983;-82
2022/07/04 03:32:05;;;;;;;;;;;;;;;;;;2075005;28;19917;-82
2022/07/04 03:33:08;;;;;;;;;;;;;;;;;;2074896;28;19925;-83
2022/07/04 03:34:08;;;;;;;;;;;;;;;;;;2075293;28;20023;-83
2022/07/04 03:35:08;;;;;;;;;;;;;;;;;;2074985;28;20342;-84
2022/07/04 03:36:09;;;;;;;;;;;;;;;;;;2074993;28;19928;-83
2022/07/04 03:37:09;;;;;;;;;;;;;;;;;;2075247;28;19914;-84
2022/07/04 03:38:09;;;;;;;;;;;;;;;;;;2074376;28;20410;-83
2022/07/04 03:39:13;;;;;;;;;;;;;;;;;;2074652;28;19913;-84
2022/07/04 03:40:15;;;;;;;;;;;;;;;;;;2074794;28;19913;-84
2022/07/04 03:41:15;;;;;;;;;;;;;;;;;;2075146;28;19914;-84
2022/07/04 03:42:15;;;;;;;;;;;;;;;;;;2075228;28;20006;-84
2022/07/04 03:43:16;;;;;;;;;;;;;;;;;;2074953;28;20020;-84
2022/07/04 03:44:16;;;;;;;;;;;;;;;;;;2066402;28;20366;-85
2022/07/04 03:45:16;;;;;;;;;;;;;;;;;;2074716;28;20080;-85
2022/07/04 03:46:16;;;;;;;;;;;;;;;;;;2074444;28;20330;-82
2022/07/04 03:47:17;;;;;;;;;;;;;;;;;;2074763;28;19999;-85
2022/07/04 03:48:17;;;;;;;;;;;;;;;;;;2075387;28;19913;-84
2022/07/04 03:49:22;;;;;;;;;;;;;;;;;;2075610;28;19979;-84
2022/07/04 03:50:22;;;;;;;;;;;;;;;;;;2078423;28;20000;-84
2022/07/04 03:51:25;;;;;;;;;;;;;;;;;;2075581;28;19913;-84
2022/07/04 03:52:25;;;;;;;;;;;;;;;;;;2075503;28;19968;-84
2022/07/04 03:53:33;;;;;;;;;;;;;;;;;;2075807;28;19913;-84
2022/07/04 03:54:33;;;;;;;;;;;;;;;;;;2076281;28;20298;-84
2022/07/04 03:55:33;;;;;;;;;;;;;;;;;;2075700;28;19957;-84
2022/07/04 03:56:34;;;;;;;;;;;;;;;;;;2074394;28;20454;-84
2022/07/04 03:57:34;;;;;;;;;;;;;;;;;;2074635;28;19924;-83
2022/07/04 03:58:34;;;;;;;;;;;;;;;;;;2075084;28;20393;-82
2022/07/04 03:59:34;;;;;;;;;;;;;;;;;;2074886;28;20060;-83
2022/07/04 04:00:35;;;;;;;;;;;;;;;;;;2074875;28;20341;-85
2022/07/04 04:01:35;;;;;;;;;;;;;;;;;;2074572;28;20012;-83
2022/07/04 04:02:36;;;;;;;;;;;;;;;;;;2074849;28;19921;-83
2022/07/04 04:06:14;;;;;;;;;;;;;;;;;;2074634;28;19921;-83
2022/07/04 04:07:15;;;;;;;;;;;;;;;;;;2074333;28;19921;-83
2022/07/04 04:08:18;;;;;;;;;;;;;;;;;;2074880;28;19980;-83
2022/07/04 04:09:19;;;;;;;;;;;;;;;;;;2074176;28;19913;-83
2022/07/04 04:10:19;;;;;;;;;;;;;;;;;;2074311;28;19926;-83
2022/07/04 04:11:19;;;;;;;;;;;;;;;;;;2074661;28;19996;-82
2022/07/04 04:12:19;;;;;;;;;;;;;;;;;;2074557;28;19918;-83
2022/07/04 04:13:20;;;;;;;;;;;;;;;;;;2074675;28;19917;-82
2022/07/04 04:14:20;;;;;;;;;;;;;;;;;;2074561;28;19913;-84
2022/07/04 04:15:20;;;;;;;;;;;;;;;;;;2074330;28;19971;-82
2022/07/04 04:16:21;;;;;;;;;;;;;;;;;;2074056;28;19920;-83
2022/07/04 04:17:21;;;;;;;;;;;;;;;;;;2074261;28;20378;-83
2022/07/04 04:18:21;;;;;;;;;;;;;;;;;;2074054;28;20326;-83
2022/07/04 04:19:21;;;;;;;;;;;;;;;;;;2074034;28;20137;-83
2022/07/04 04:20:22;;;;;;;;;;;;;;;;;;2074672;28;19925;-82
2022/07/04 04:21:22;;;;;;;;;;;;;;;;;;2074001;28;20016;-83
2022/07/04 04:22:24;;;;;;;;;;;;;;;;;;2065833;28;19986;-83
2022/07/04 04:23:25;;;;;;;;;;;;;;;;;;2073994;28;20354;-83
2022/07/04 04:24:25;;;;;;;;;;;;;;;;;;2074549;28;19914;-83
2022/07/04 04:25:25;;;;;;;;;;;;;;;;;;2074740;28;19917;-83
2022/07/04 04:26:25;;;;;;;;;;;;;;;;;;2073986;28;19913;-84
2022/07/04 04:27:28;;;;;;;;;;;;;;;;;;2073939;28;20509;-83
2022/07/04 04:28:28;;;;;;;;;;;;;;;;;;2074256;28;19914;-84
2022/07/04 04:29:33;;;;;;;;;;;;;;;;;;2074239;28;19918;-85
2022/07/04 04:30:36;;;;;;;;;;;;;;;;;;2074692;28;19940;-83
2022/07/04 04:31:36;;;;;;;;;;;;;;;;;;2074452;28;19918;-83
2022/07/04 04:32:38;;;;;;;;;;;;;;;;;;2073770;28;19960;-83
2022/07/04 04:33:40;;;;;;;;;;;;;;;;;;2074019;28;19917;-83
2022/07/04 04:34:43;;;;;;;;;;;;;;;;;;2074039;28;19918;-83
2022/07/04 04:35:43;;;;;;;;;;;;;;;;;;2074156;28;19920;-84
2022/07/04 04:36:43;;;;;;;;;;;;;;;;;;2074298;28;20377;-84
2022/07/04 04:37:43;;;;;;;;;;;;;;;;;;2074308;28;19979;-83
2022/07/04 04:38:46;;;;;;;;;;;;;;;;;;2074430;28;20292;-83
2022/07/04 04:39:47;;;;;;;;;;;;;;;;;;2074600;28;19913;-83
2022/07/04 04:40:49;;;;;;;;;;;;;;;;;;2074332;28;19921;-85
2022/07/04 04:41:49;;;;;;;;;;;;;;;;;;2073812;28;20388;-84
2022/07/04 04:42:52;;;;;;;;;;;;;;;;;;2074344;28;19913;-83
2022/07/04 04:44:01;;;;;;;;;;;;;;;;;;2074650;28;19913;-83
2022/07/04 04:45:01;;;;;;;;;;;;;;;;;;2075912;28;19921;-83
2022/07/04 04:46:02;;;;;;;;;;;;;;;;;;2074516;28;20378;-84
2022/07/04 04:47:05;;;;;;;;;;;;;;;;;;2074419;28;19913;-84
2022/07/04 04:48:05;;;;;;;;;;;;;;;;;;2074497;28;19963;-83
2022/07/04 04:49:05;;;;;;;;;;;;;;;;;;2074381;28;19920;-83
2022/07/04 04:50:10;;;;;;;;;;;;;;;;;;2074536;28;19925;-84
2022/07/04 04:51:10;;;;;;;;;;;;;;;;;;2074509;28;19927;-84
2022/07/04 04:52:11;;;;;;;;;;;;;;;;;;2074085;28;20385;-84
2022/07/04 04:53:11;;;;;;;;;;;;;;;;;;2074110;28;19922;-84
2022/07/04 04:54:11;;;;;;;;;;;;;;;;;;2074372;28;19956;-84
2022/07/04 04:55:12;;;;;;;;;;;;;;;;;;2074490;28;19913;-83
2022/07/04 04:56:12;;;;;;;;;;;;;;;;;;2074411;28;19963;-83
2022/07/04 04:57:12;;;;;;;;;;;;;;;;;;2074145;28;19917;-83
2022/07/04 04:58:12;;;;;;;;;;;;;;;;;;2074545;28;19913;-84
2022/07/04 04:59:13;;;;;;;;;;;;;;;;;;2074304;28;19975;-84
2022/07/04 05:00:13;;;;;;;;;;;;;;;;;;2073851;28;19914;-83
2022/07/04 05:01:13;;;;;;;;;;;;;;;;;;2074011;28;20007;-84
2022/07/04 05:02:16;;;;;;;;;;;;;;;;;;2074298;28;19914;-84
2022/07/04 05:03:16;;;;;;;;;;;;;;;;;;2074602;28;20004;-84
2022/07/04 05:04:17;;;;;;;;;;;;;;;;;;2074518;28;20263;-84
2022/07/04 05:05:17;;;;;;;;;;;;;;;;;;2074553;28;19920;-83
2022/07/04 05:06:19;;;;;;;;;;;;;;;;;;2074113;28;20326;-84
2022/07/04 05:07:20;;;;;;;;;;;;;;;;;;2074663;28;19918;-84
2022/07/04 05:08:20;;;;;;;;;;;;;;;;;;2074585;28;19920;-84
2022/07/04 05:09:20;;;;;;;;;;;;;;;;;;2073976;28;19921;-84
2022/07/04 05:10:21;;;;;;;;;;;;;;;;;;2073957;28;20329;-84
2022/07/04 05:11:21;;;;;;;;;;;;;;;;;;2073692;28;19914;-84
2022/07/04 05:12:21;;;;;;;;;;;;;;;;;;2073701;28;19928;-83
2022/07/04 05:13:21;;;;;;;;;;;;;;;;;;2073730;28;19920;-84
2022/07/04 05:14:22;;;;;;;;;;;;;;;;;;2073669;28;20011;-84
2022/07/04 05:15:22;;;;;;;;;;;;;;;;;;2074054;28;19913;-84
2022/07/04 05:16:23;;;;;;;;;;;;;;;;;;2073752;28;19952;-84
2022/07/04 05:17:23;;;;;;;;;;;;;;;;;;2074283;28;19921;-84
2022/07/04 05:18:23;;;;;;;;;;;;;;;;;;2074093;28;20354;-83
2022/07/04 05:19:24;;;;;;;;;;;;;;;;;;2074243;28;19920;-84
2022/07/04 05:20:24;;;;;;;;;;;;;;;;;;2073763;28;19913;-83
2022/07/04 05:21:26;;;;;;;;;;;;;;;;;;2073958;28;19917;-84
2022/07/04 05:22:26;;;;;;;;;;;;;;;;;;2074285;28;19914;-84
2022/07/04 05:23:26;;;;;;;;;;;;;;;;;;2074310;28;19995;-84
2022/07/04 05:24:44;;;;;;;;;;;;;;;;;;2073078;28;19925;-84
2022/07/04 05:25:44;;;;;;;;;;;;;;;;;;2073671;28;20199;-84
2022/07/04 05:26:44;;;;;;;;;;;;;;;;;;2074274;28;19906;-84
2022/07/04 05:27:45;;;;;;;;;;;;;;;;;;2074400;28;19914;-84
2022/07/04 05:29:01;;;;;;;;;;;;;;;;;;;;;
2022/07/04 05:30:14;;;;;;;;;;;;;;;;;;;;;
2022/07/04 05:31:24;;;;;;;;;;;;;;;;;;2073305;28;19944;-84
2022/07/04 05:32:25;;;;;;;;;;;;;;;;;;2076857;28;20286;-84
2022/07/04 05:33:33;;;;;;;;;;;;;;;;;;2073994;28;20381;-84
2022/07/04 05:34:39;;;;;;;;;;;;;;;;;;2073719;28;19945;-84
2022/07/04 05:35:39;;;;;;;;;;;;;;;;;;2073818;28;20290;-84
2022/07/04 05:36:42;;;;;;;;;;;;;;;;;;2072600;28;19929;-84
2022/07/04 05:37:43;;;;;;;;;;;;;;;;;;2071848;28;19928;-83
2022/07/04 05:38:43;;;;;;;;;;;;;;;;;;2071642;28;19979;-83
2022/07/04 05:39:46;;;;;;;;;;;;;;;;;;2072042;28;19918;-85
2022/07/04 05:40:47;;;;;;;;;;;;;;;;;;2073684;28;20007;-84
2022/07/04 05:41:47;;;;;;;;;;;;;;;;;;2075479;28;19913;-85
2022/07/04 05:42:48;;;;;;;;;;;;;;;;;;2079809;28;19932;-83
2022/07/04 05:43:48;;;;;;;;;;;;;;;;;;2083386;28;19921;-83
2022/07/04 05:44:49;;;;;;;;;;;;;;;;;;2080176;28;19928;-83
2022/07/04 05:45:49;;;;;;;;;;;;;;;;;;2081992;28;19933;-83
2022/07/04 05:46:50;;;;;;;;;;;;;;;;;;2084573;28;19918;-83
2022/07/04 05:47:50;;;;;;;;;;;;;;;;;;2079004;28;19963;-83
2022/07/04 05:48:50;;;;;;;;;;;;;;;;;;2074333;28;19926;-83
2022/07/04 05:49:55;;;;;;;;;;;;;;;;;;2073150;28;20082;-82
2022/07/04 05:50:58;;;;;;;;;;;;;;;;;;2075138;28;20326;-83
2022/07/04 05:51:59;;;;;;;;;;;;;;;;;;2078164;28;20345;-84
2022/07/04 05:52:59;;;;;;;;;;;;;;;;;;2073570;28;19917;-83
2022/07/04 05:54:00;;;;;;;;;;;;;;;;;;2073861;28;19924;-83
2022/07/04 05:55:00;;;;;;;;;;;;;;;;;;2073789;28;19924;-83
2022/07/04 05:56:02;;;;;;;;;;;;;;;;;;2073793;28;20370;-82
2022/07/04 05:57:03;;;;;;;;;;;;;;;;;;2073517;28;19926;-84
2022/07/04 05:58:03;;;;;;;;;;;;;;;;;;2073629;28;20392;-83
2022/07/04 05:59:04;;;;;;;;;;;;;;;;;;2073335;28;19913;-83
2022/07/04 06:00:05;;;;;;;;;;;;;;;;;;2073582;28;19913;-84
2022/07/04 06:01:05;;;;;;;;;;;;;;;;;;2081333;28;19913;-85
2022/07/04 06:02:05;;;;;;;;;;;;;;;;;;2081557;28;19917;-84
2022/07/04 06:03:06;;;;;;;;;;;;;;;;;;2074485;28;20330;-83
2022/07/04 06:04:06;;;;;;;;;;;;;;;;;;2081795;28;19913;-84
2022/07/04 06:05:07;;;;;;;;;;;;;;;;;;2071529;28;19984;-84
2022/07/04 06:06:07;;;;;;;;;;;;;;;;;;2059659;28;19922;-84
2022/07/04 06:07:10;;;;;;;;;;;;;;;;;;2065863;28;20310;-83
2022/07/04 06:08:10;;;;;;;;;;;;;;;;;;2068718;28;20009;-83
2022/07/04 06:09:10;;;;;;;;;;;;;;;;;;2074141;28;20386;-83
2022/07/04 06:10:13;;;;;;;;;;;;;;;;;;2082047;28;19948;-81
2022/07/04 06:11:17;;;;;;;;;;;;;;;;;;2081700;28;19913;-81
2022/07/04 06:12:17;;;;;;;;;;;;;;;;;;2073918;28;20421;-82
2022/07/04 06:13:18;;;;;;;;;;;;;;;;;;2073862;28;19925;-81
2022/07/04 06:14:18;;;;;;;;;;;;;;;;;;2073743;28;19925;-82
2022/07/04 06:15:18;;;;;;;;;;;;;;;;;;2081073;28;20294;-83
2022/07/04 06:16:19;;;;;;;;;;;;;;;;;;2081416;28;19951;-80
2022/07/04 06:17:19;;;;;;;;;;;;;;;;;;2073473;28;20289;-82
2022/07/04 06:18:20;;;;;;;;;;;;;;;;;;2081103;28;19924;-82
2022/07/04 06:19:20;;;;;;;;;;;;;;;;;;2080932;28;19936;-82
2022/07/04 06:20:20;;;;;;;;;;;;;;;;;;2072467;28;20386;-81
2022/07/04 06:21:21;;;;;;;;;;;;;;;;;;2072828;28;19918;-81
2022/07/04 06:22:21;;;;;;;;;;;;;;;;;;2073372;28;20294;-81
2022/07/04 06:23:21;;;;;;;;;;;;;;;;;;2072608;28;19927;-82
2022/07/04 06:24:21;;;;;;;;;;;;;;;;;;2073003;28;20361;-82
2022/07/04 06:25:22;;;;;;;;;;;;;;;;;;2066600;28;19999;-82
2022/07/04 06:26:22;;;;;;;;;;;;;;;;;;2072230;28;20071;-82
2022/07/04 06:27:22;;;;;;;;;;;;;;;;;;2076347;28;19954;-81
2022/07/04 06:28:23;;;;;;;;;;;;;;;;;;2075726;28;20333;-82
2022/07/04 06:29:23;;;;;;;;;;;;;;;;;;2072535;28;19979;-82
2022/07/04 06:30:23;;;;;;;;;;;;;;;;;;2072610;28;19926;-82
2022/07/04 06:31:24;;;;;;;;;;;;;;;;;;2072621;28;19921;-82
2022/07/04 06:32:27;;;;;;;;;;;;;;;;;;2075189;28;20008;-82
2022/07/04 06:33:27;;;;;;;;;;;;;;;;;;2075228;28;19996;-80
2022/07/04 06:35:54;;;;;;;;;;;;;;;;;;2072774;28;20292;-88
2022/07/04 06:36:54;;;;;;;;;;;;;;;;;;2076727;28;19929;-88
2022/07/04 06:37:57;;;;;;;;;;;;;;;;;;2078708;28;19917;-90
2022/07/04 06:38:58;;;;;;;;;;;;;;;;;;2074695;28;19918;-90
2022/07/04 06:39:58;;;;;;;;;;;;;;;;;;2073941;28;19929;-90
2022/07/04 06:40:59;;;;;;;;;;;;;;;;;;2073906;28;19949;-89
2022/07/04 06:41:59;;;;;;;;;;;;;;;;;;2074096;28;20036;-86
2022/07/04 06:43:00;;;;;;;;;;;;;;;;;;2074424;28;19991;-90
2022/07/04 06:44:00;;;;;;;;;;;;;;;;;;2073795;28;19936;-89
2022/07/04 06:45:00;;;;;;;;;;;;;;;;;;2075021;28;19934;-86
2022/07/04 06:46:01;;;;;;;;;;;;;;;;;;2075063;28;20040;-90
2022/07/04 06:47:03;;;;;;;;;;;;;;;;;;2075051;28;19940;-86
2022/07/04 06:48:04;;;;;;;;;;;;;;;;;;2074129;28;20401;-90
2022/07/04 06:49:05;;;;;;;;;;;;;;;;;;2075208;28;19925;-89
2022/07/04 06:50:05;;;;;;;;;;;;;;;;;;2074958;28;19914;-90
2022/07/04 06:51:06;;;;;;;;;;;;;;;;;;2074627;28;19922;-89
2022/07/04 06:52:06;;;;;;;;;;;;;;;;;;2074781;28;20381;-89
2022/07/04 06:53:07;;;;;;;;;;;;;;;;;;2074965;28;19914;-89
2022/07/04 06:54:10;;;;;;;;;;;;;;;;;;2075057;28;20421;-87
2022/07/04 06:55:10;;;;;;;;;;;;;;;;;;2073688;28;19979;-89
2022/07/04 06:56:11;;;;;;;;;;;;;;;;;;2073944;28;19921;-92
2022/07/04 06:57:14;;;;;;;;;;;;;;;;;;2073917;28;19999;-92
2022/07/04 06:58:14;;;;;;;;;;;;;;;;;;2074300;28;19924;-92
2022/07/04 06:59:14;;;;;;;;;;;;;;;;;;2072710;28;19921;-84
2022/07/04 07:00:15;;;;;;;;;;;;;;;;;;2072660;28;19925;-90
2022/07/04 07:01:16;;;;;;;;;;;;;;;;;;2070298;28;19988;-90
2022/07/04 07:02:16;;;;;;;;;;;;;;;;;;2067267;28;20442;-90
2022/07/04 07:03:16;;;;;;;;;;;;;;;;;;2072227;28;19917;-89
2022/07/04 07:04:17;;;;;;;;;;;;;;;;;;2074908;28;19914;-90
2022/07/04 07:05:17;;;;;;;;;;;;;;;;;;2074999;28;19927;-83
2022/07/04 07:06:17;;;;;;;;;;;;;;;;;;2075031;28;19914;-86
2022/07/04 07:07:17;;;;;;;;;;;;;;;;;;2074794;28;19961;-89
2022/07/04 07:08:18;;;;;;;;;;;;;;;;;;2075029;28;19992;-85
2022/07/04 07:09:18;;;;;;;;;;;;;;;;;;2075167;28;20432;-90
2022/07/04 07:10:18;;;;;;;;;;;;;;;;;;2075144;28;19928;-90
2022/07/04 07:11:19;;;;;;;;;;;;;;;;;;2074823;28;19972;-88
2022/07/04 07:12:20;;;;;;;;;;;;;;;;;;2075151;28;19921;-86
2022/07/04 07:13:20;;;;;;;;;;;;;;;;;;2074793;28;19913;-86